createdAt,value
2023-05-07T00:01:00.723Z,84.54
2023-05-07T00:03:29.038Z,84.47
2023-05-07T00:05:57.340Z,84.46
2023-05-07T00:08:25.428Z,84.64
2023-05-07T00:10:54.021Z,84.76
2023-05-07T00:13:22.117Z,84.82
2023-05-07T00:15:50.276Z,84.62
2023-05-07T00:18:22.077Z,84.79
2023-05-07T00:20:49.965Z,84.74
2023-05-07T00:23:17.994Z,84.63
2023-05-07T00:25:45.990Z,84.58
2023-05-07T00:28:14.003Z,84.68
2023-05-07T00:30:42.024Z,84.57
2023-05-07T00:33:10.238Z,84.69
2023-05-07T00:35:38.248Z,84.65
2023-05-07T00:38:06.296Z,84.59
2023-05-07T00:40:34.427Z,84.48
2023-05-07T00:43:02.332Z,84.61
2023-05-07T00:45:30.549Z,84.76
2023-05-07T00:48:01.648Z,84.79
2023-05-07T00:50:31.098Z,84.82
2023-05-07T00:52:59.650Z,85.00
2023-05-07T00:55:27.758Z,84.93
2023-05-07T00:57:55.824Z,84.80
2023-05-07T01:00:23.826Z,84.87
2023-05-07T01:02:51.899Z,84.85
2023-05-07T01:05:22.188Z,84.90
2023-05-07T01:07:52.257Z,84.99
2023-05-07T01:10:20.370Z,84.93
2023-05-07T01:12:49.734Z,84.97
2023-05-07T01:15:18.825Z,84.88
2023-05-07T01:17:47.916Z,84.91
2023-05-07T01:20:31.127Z,85.06
2023-05-07T01:23:01.179Z,85.00
2023-05-07T01:25:29.867Z,84.82
2023-05-07T01:28:03.537Z,84.97
2023-05-07T01:30:35.767Z,85.06
2023-05-07T01:33:14.538Z,85.06
2023-05-07T01:35:46.559Z,85.05
2023-05-07T01:38:14.981Z,85.10
2023-05-07T01:40:43.801Z,85.06
2023-05-07T01:43:12.351Z,85.12
2023-05-07T01:45:41.705Z,85.32
2023-05-07T01:48:12.494Z,85.21
2023-05-07T01:50:40.583Z,85.20
2023-05-07T01:53:08.682Z,85.28
2023-05-07T01:55:37.944Z,85.28
2023-05-07T01:58:06.225Z,85.34
2023-05-07T02:00:34.620Z,85.51
2023-05-07T02:03:02.904Z,85.41
2023-05-07T02:05:44.052Z,85.35
2023-05-07T02:08:19.083Z,85.48
2023-05-07T02:10:47.078Z,85.56
2023-05-07T02:13:15.034Z,85.71
2023-05-07T02:15:43.213Z,85.62
2023-05-07T02:18:11.454Z,85.72
2023-05-07T02:20:39.488Z,85.70
2023-05-07T02:23:07.631Z,85.68
2023-05-07T02:25:35.666Z,85.74
2023-05-07T02:28:03.665Z,85.68
2023-05-07T02:30:41.368Z,85.69
2023-05-07T02:33:10.222Z,85.78
2023-05-07T02:35:38.301Z,85.86
2023-05-07T02:38:06.727Z,85.76
2023-05-07T02:40:35.115Z,85.72
2023-05-07T02:43:03.067Z,85.97
2023-05-07T02:45:31.136Z,85.85
2023-05-07T02:47:59.418Z,85.66
2023-05-07T02:50:28.163Z,85.63
2023-05-07T02:52:56.345Z,85.65
2023-05-07T02:55:24.380Z,85.72
2023-05-07T02:57:52.355Z,85.85
2023-05-07T03:00:21.855Z,85.95
2023-05-07T03:03:13.308Z,85.95
2023-05-07T03:05:41.742Z,85.80
2023-05-07T03:08:10.543Z,85.91
2023-05-07T03:10:38.626Z,85.83
2023-05-07T03:13:06.844Z,85.88
2023-05-07T03:15:34.967Z,85.81
2023-05-07T03:18:03.130Z,85.87
2023-05-07T03:20:31.395Z,85.88
2023-05-07T03:22:59.698Z,85.92
2023-05-07T03:25:27.619Z,85.99
2023-05-07T03:27:55.552Z,85.88
2023-05-07T03:30:25.528Z,85.90
2023-05-07T03:32:53.525Z,85.87
2023-05-07T03:35:21.579Z,85.85
2023-05-07T03:37:49.640Z,85.92
2023-05-07T03:40:17.843Z,86.03
2023-05-07T03:42:49.473Z,86.04
2023-05-07T03:45:17.979Z,85.93
2023-05-07T03:47:48.938Z,85.89
2023-05-07T03:50:20.740Z,85.86
2023-05-07T03:52:48.647Z,85.78
2023-05-07T03:55:16.989Z,85.93
2023-05-07T03:57:49.430Z,85.93
2023-05-07T04:00:17.767Z,85.99
2023-05-07T04:02:48.599Z,85.98
2023-05-07T04:05:19.323Z,85.95
2023-05-07T04:07:48.447Z,85.91
2023-05-07T04:10:17.510Z,85.93
2023-05-07T04:12:46.304Z,85.95
2023-05-07T04:15:18.445Z,85.95
2023-05-07T04:17:46.864Z,85.98
2023-05-07T04:20:17.948Z,86.00
2023-05-07T04:22:48.015Z,85.90
2023-05-07T04:25:17.436Z,85.93
2023-05-07T04:27:46.353Z,85.82
2023-05-07T04:30:14.877Z,85.82
2023-05-07T04:32:43.091Z,85.86
2023-05-07T04:35:11.201Z,85.92
2023-05-07T04:37:40.062Z,85.75
2023-05-07T04:40:08.934Z,85.63
2023-05-07T04:42:37.073Z,85.71
2023-05-07T04:45:06.264Z,85.68
2023-05-07T04:47:35.350Z,85.72
2023-05-07T04:50:03.983Z,85.77
2023-05-07T04:52:32.395Z,85.71
2023-05-07T04:55:01.662Z,85.71
2023-05-07T04:57:31.993Z,85.86
2023-05-07T04:59:59.949Z,85.89
2023-05-07T05:02:28.041Z,86.03
2023-05-07T05:04:56.213Z,86.08
2023-05-07T05:07:24.858Z,85.97
2023-05-07T05:09:53.820Z,85.92
2023-05-07T05:12:21.831Z,85.87
2023-05-07T05:14:50.729Z,85.96
2023-05-07T05:17:19.147Z,85.96
2023-05-07T05:19:47.785Z,85.88
2023-05-07T05:22:16.301Z,85.79
2023-05-07T05:24:44.307Z,85.87
2023-05-07T05:27:12.240Z,85.81
2023-05-07T05:29:40.298Z,85.69
2023-05-07T05:32:08.599Z,85.82
2023-05-07T05:34:36.645Z,85.73
2023-05-07T05:37:05.098Z,85.65
2023-05-07T05:39:33.151Z,85.83
2023-05-07T05:42:01.204Z,85.73
2023-05-07T05:44:29.304Z,85.77
2023-05-07T05:47:00.286Z,85.93
2023-05-07T05:49:28.798Z,85.88
2023-05-07T05:51:57.032Z,85.81
2023-05-07T05:54:26.411Z,85.80
2023-05-07T05:56:54.370Z,85.81
2023-05-07T05:59:22.500Z,85.87
2023-05-07T06:01:50.658Z,85.74
2023-05-07T06:04:18.567Z,85.77
2023-05-07T06:06:46.556Z,85.87
2023-05-07T06:09:14.596Z,85.90
2023-05-07T06:11:44.429Z,85.89
2023-05-07T06:14:13.083Z,85.97
2023-05-07T06:16:41.240Z,85.90
2023-05-07T06:19:09.537Z,85.94
2023-05-07T06:21:40.319Z,85.94
2023-05-07T06:24:08.737Z,85.96
2023-05-07T06:26:38.834Z,85.81
2023-05-07T06:29:07.320Z,85.60
2023-05-07T06:31:35.921Z,85.62
2023-05-07T06:34:06.590Z,85.78
2023-05-07T06:36:39.246Z,85.78
2023-05-07T06:39:27.430Z,85.82
2023-05-07T06:41:55.803Z,85.83
2023-05-07T06:44:27.615Z,86.06
2023-05-07T06:47:06.449Z,85.88
2023-05-07T06:49:35.422Z,85.80
2023-05-07T06:52:03.403Z,85.99
2023-05-07T06:54:32.066Z,85.83
2023-05-07T06:57:00.092Z,85.69
2023-05-07T06:59:28.689Z,85.59
2023-05-07T07:01:56.851Z,85.65
2023-05-07T07:04:26.342Z,85.72
2023-05-07T07:07:01.147Z,85.32
2023-05-07T07:09:30.102Z,85.40
2023-05-07T07:11:58.973Z,85.45
2023-05-07T07:14:27.207Z,85.41
2023-05-07T07:16:55.509Z,85.30
2023-05-07T07:19:23.718Z,85.12
2023-05-07T07:21:53.280Z,85.03
2023-05-07T07:24:22.496Z,84.75
2023-05-07T07:26:56.406Z,84.73
2023-05-07T07:29:27.643Z,84.59
2023-05-07T07:31:55.858Z,84.71
2023-05-07T07:34:24.094Z,84.44
2023-05-07T07:36:52.505Z,84.25
2023-05-07T07:39:20.714Z,84.11
2023-05-07T07:41:51.384Z,83.58
2023-05-07T07:44:19.865Z,83.59
2023-05-07T07:46:51.865Z,83.51
2023-05-07T07:49:20.430Z,83.68
2023-05-07T07:51:48.930Z,83.43
2023-05-07T07:54:17.924Z,83.04
2023-05-07T07:56:46.305Z,83.24
2023-05-07T07:59:18.716Z,83.38
2023-05-07T08:01:47.108Z,83.18
2023-05-07T08:04:15.917Z,83.22
2023-05-07T08:06:44.354Z,83.06
2023-05-07T08:09:12.693Z,82.76
2023-05-07T08:11:41.959Z,82.69
2023-05-07T08:14:10.586Z,82.34
2023-05-07T08:16:38.736Z,82.47
2023-05-07T08:19:06.696Z,82.45
2023-05-07T08:21:35.892Z,82.56
2023-05-07T08:24:04.496Z,82.28
2023-05-07T08:26:32.411Z,82.20
2023-05-07T08:29:00.408Z,81.81
2023-05-07T08:31:28.340Z,81.54
2023-05-07T08:33:57.046Z,81.01
2023-05-07T08:36:25.565Z,81.12
2023-05-07T08:38:53.945Z,81.33
2023-05-07T08:41:22.788Z,80.96
2023-05-07T08:43:51.966Z,80.86
2023-05-07T08:46:21.920Z,80.99
2023-05-07T08:48:51.046Z,80.01
2023-05-07T08:51:21.320Z,79.98
2023-05-07T08:53:51.062Z,79.97
2023-05-07T08:56:24.813Z,79.96
2023-05-07T08:58:57.542Z,79.68
2023-05-07T09:01:26.462Z,79.05
2023-05-07T09:03:54.976Z,78.92
2023-05-07T09:06:23.746Z,78.84
2023-05-07T09:08:54.679Z,78.49
2023-05-07T09:11:26.338Z,78.58
2023-05-07T09:13:57.163Z,78.30
2023-05-07T09:16:26.570Z,78.19
2023-05-07T09:18:55.776Z,77.63
2023-05-07T09:21:24.169Z,77.54
2023-05-07T09:23:56.256Z,77.69
2023-05-07T09:26:29.356Z,77.61
2023-05-07T09:28:57.547Z,77.63
2023-05-07T09:31:26.187Z,77.34
2023-05-07T09:33:56.970Z,77.29
2023-05-07T09:36:26.250Z,77.33
2023-05-07T09:38:54.441Z,77.35
2023-05-07T09:41:22.469Z,77.34
2023-05-07T09:43:57.363Z,77.16
2023-05-07T09:46:34.553Z,77.11
2023-05-07T09:49:11.251Z,77.11
2023-05-07T09:51:49.215Z,76.99
2023-05-07T09:54:19.309Z,76.86
2023-05-07T09:56:50.151Z,77.06
2023-05-07T09:59:19.728Z,76.76
2023-05-07T10:01:49.448Z,76.85
2023-05-07T10:04:18.617Z,76.61
2023-05-07T10:06:47.740Z,76.40
2023-05-07T10:09:16.350Z,76.39
2023-05-07T10:11:44.815Z,76.64
2023-05-07T10:14:13.364Z,76.42
2023-05-07T10:16:42.489Z,76.35
2023-05-07T10:19:13.708Z,76.30
2023-05-07T10:21:58.023Z,76.32
2023-05-07T10:24:30.155Z,75.98
2023-05-07T10:27:00.501Z,76.20
2023-05-07T10:29:28.518Z,76.22
2023-05-07T10:32:11.358Z,76.40
2023-05-07T10:34:43.054Z,76.35
2023-05-07T10:37:12.120Z,76.03
2023-05-07T10:39:40.313Z,75.84
2023-05-07T10:42:12.074Z,75.84
2023-05-07T10:44:41.707Z,75.76
2023-05-07T10:47:19.738Z,75.97
2023-05-07T10:49:49.863Z,76.06
2023-05-07T10:52:25.583Z,75.99
2023-05-07T10:55:19.995Z,75.75
2023-05-07T10:58:32.528Z,75.69
2023-05-07T11:01:55.353Z,75.43
2023-05-07T11:04:39.779Z,75.51
2023-05-07T11:07:29.233Z,75.35
2023-05-07T11:10:05.843Z,75.43
2023-05-07T11:12:57.162Z,75.31
2023-05-07T11:15:39.022Z,75.29
2023-05-07T11:18:14.770Z,75.20
2023-05-07T11:20:45.941Z,75.04
2023-05-07T11:23:35.342Z,75.05
2023-05-07T11:26:19.269Z,75.28
2023-05-07T11:28:47.979Z,75.41
2023-05-07T11:31:24.002Z,75.35
2023-05-07T11:33:54.152Z,74.95
2023-05-07T11:36:24.289Z,75.03
2023-05-07T11:38:54.195Z,74.92
2023-05-07T11:41:23.072Z,74.82
2023-05-07T11:43:58.491Z,74.44
2023-05-07T11:46:28.494Z,74.01
2023-05-07T11:48:57.754Z,74.12
2023-05-07T11:51:27.292Z,74.10
2023-05-07T11:53:55.332Z,73.73
2023-05-07T11:56:23.298Z,73.48
2023-05-07T11:58:53.051Z,73.78
2023-05-07T12:01:21.117Z,73.87
2023-05-07T12:03:49.148Z,73.65
2023-05-07T12:06:18.902Z,73.39
2023-05-07T12:08:48.361Z,73.31
2023-05-07T12:11:22.802Z,72.82
2023-05-07T12:13:50.892Z,72.54
2023-05-07T12:16:20.080Z,72.48
2023-05-07T12:18:48.788Z,72.50
2023-05-07T12:21:18.452Z,72.20
2023-05-07T12:23:46.674Z,72.28
2023-05-07T12:26:14.560Z,72.06
2023-05-07T12:28:42.527Z,72.27
2023-05-07T12:31:10.588Z,71.97
2023-05-07T12:33:38.641Z,71.71
2023-05-07T12:36:08.663Z,71.52
2023-05-07T12:38:40.983Z,71.49
2023-05-07T12:41:11.179Z,71.53
2023-05-07T12:43:39.749Z,71.35
2023-05-07T12:46:09.064Z,71.43
2023-05-07T12:48:44.309Z,71.51
2023-05-07T12:51:14.521Z,71.28
2023-05-07T12:53:43.809Z,71.23
2023-05-07T12:56:11.849Z,71.31
2023-05-07T12:58:39.832Z,71.27
2023-05-07T13:01:10.788Z,70.80
2023-05-07T13:03:39.855Z,70.94
2023-05-07T13:06:11.587Z,70.95
2023-05-07T13:08:44.340Z,70.52
2023-05-07T13:11:13.619Z,70.58
2023-05-07T13:13:42.177Z,70.62
2023-05-07T13:16:12.352Z,70.86
2023-05-07T13:18:41.959Z,70.83
2023-05-07T13:21:11.129Z,70.79
2023-05-07T13:23:39.723Z,70.30
2023-05-07T13:26:22.489Z,69.98
2023-05-07T13:28:55.490Z,70.06
2023-05-07T13:31:23.738Z,70.29
2023-05-07T13:33:51.813Z,70.57
2023-05-07T13:36:19.801Z,70.66
2023-05-07T13:38:47.726Z,70.69
2023-05-07T13:41:15.881Z,70.29
2023-05-07T13:43:43.891Z,70.40
2023-05-07T13:46:12.400Z,70.34
2023-05-07T13:48:40.570Z,70.37
2023-05-07T13:51:08.570Z,70.40
2023-05-07T13:53:36.662Z,70.65
2023-05-07T13:56:05.672Z,70.53
2023-05-07T13:58:33.980Z,70.50
2023-05-07T14:01:02.040Z,70.42
2023-05-07T14:03:32.886Z,70.23
2023-05-07T14:06:02.511Z,70.21
2023-05-07T14:08:31.885Z,70.13
2023-05-07T14:11:01.078Z,70.13
2023-05-07T14:13:29.103Z,70.14
2023-05-07T14:15:57.438Z,70.21
2023-05-07T14:18:25.745Z,70.38
2023-05-07T14:20:53.836Z,70.28
2023-05-07T14:23:26.606Z,69.90
2023-05-07T14:25:54.681Z,69.80
2023-05-07T14:28:22.750Z,69.94
2023-05-07T14:30:50.946Z,69.70
2023-05-07T14:33:19.018Z,69.73
2023-05-07T14:35:49.849Z,69.80
2023-05-07T14:38:17.937Z,69.84
2023-05-07T14:40:45.954Z,69.75
2023-05-07T14:43:13.904Z,69.61
2023-05-07T14:45:42.064Z,69.59
2023-05-07T14:48:13.506Z,69.51
2023-05-07T14:50:43.979Z,69.54
2023-05-07T14:53:11.899Z,69.37
2023-05-07T14:55:39.923Z,69.35
2023-05-07T14:58:07.988Z,69.30
2023-05-07T15:00:36.081Z,69.40
2023-05-07T15:03:09.306Z,69.14
2023-05-07T15:05:38.692Z,69.06
2023-05-07T15:08:07.057Z,69.32
2023-05-07T15:10:42.036Z,69.15
2023-05-07T15:13:15.337Z,69.20
2023-05-07T15:15:45.402Z,68.76
2023-05-07T15:18:13.311Z,68.81
2023-05-07T15:20:42.329Z,68.63
2023-05-07T15:23:15.039Z,68.61
2023-05-07T15:25:44.999Z,68.74
2023-05-07T15:28:12.907Z,68.70
2023-05-07T15:30:40.917Z,68.69
2023-05-07T15:33:08.854Z,68.91
2023-05-07T15:35:36.875Z,68.77
2023-05-07T15:38:06.460Z,68.66
2023-05-07T15:40:36.387Z,68.58
2023-05-07T15:43:04.599Z,68.53
2023-05-07T15:45:32.783Z,68.49
2023-05-07T15:48:00.724Z,68.45
2023-05-07T15:50:29.661Z,68.28
2023-05-07T15:52:58.340Z,68.02
2023-05-07T15:55:26.301Z,68.07
2023-05-07T15:57:55.177Z,68.05
2023-05-07T16:00:23.320Z,67.97
2023-05-07T16:02:51.685Z,67.96
2023-05-07T16:05:19.919Z,67.86
2023-05-07T16:07:48.662Z,67.81
2023-05-07T16:10:16.779Z,67.81
2023-05-07T16:12:44.789Z,67.97
2023-05-07T16:15:13.044Z,67.90
2023-05-07T16:17:41.421Z,67.98
2023-05-07T16:20:12.094Z,68.00
2023-05-07T16:22:39.994Z,67.84
2023-05-07T16:25:08.463Z,68.01
2023-05-07T16:27:36.404Z,67.98
2023-05-07T16:30:04.742Z,67.86
2023-05-07T16:32:32.819Z,67.77
2023-05-07T16:35:00.771Z,67.73
2023-05-07T16:37:29.166Z,67.74
2023-05-07T16:39:57.251Z,67.88
2023-05-07T16:42:25.251Z,68.04
2023-05-07T16:44:53.099Z,67.92
2023-05-07T16:47:21.664Z,68.02
2023-05-07T16:49:50.580Z,67.88
2023-05-07T16:52:18.719Z,68.01
2023-05-07T16:54:47.008Z,67.97
2023-05-07T16:57:15.016Z,67.98
2023-05-07T16:59:42.979Z,67.93
2023-05-07T17:02:10.925Z,68.01
2023-05-07T17:04:42.707Z,68.10
2023-05-07T17:07:11.076Z,68.06
2023-05-07T17:09:39.091Z,67.98
2023-05-07T17:12:07.193Z,68.16
2023-05-07T17:14:35.057Z,68.26
2023-05-07T17:17:03.000Z,68.39
2023-05-07T17:19:31.333Z,68.35
2023-05-07T17:21:59.215Z,68.28
2023-05-07T17:24:27.062Z,68.10
2023-05-07T17:26:54.992Z,68.30
2023-05-07T17:29:22.921Z,68.35
2023-05-07T17:31:50.953Z,68.45
2023-05-07T17:34:18.853Z,68.45
2023-05-07T17:36:46.880Z,68.44
2023-05-07T17:39:14.902Z,68.30
2023-05-07T17:41:42.756Z,68.46
2023-05-07T17:44:10.769Z,68.43
2023-05-07T17:46:38.886Z,68.57
2023-05-07T17:49:06.945Z,68.39
2023-05-07T17:51:49.982Z,68.35
2023-05-07T17:54:21.869Z,68.54
2023-05-07T17:56:49.840Z,68.59
2023-05-07T17:59:17.737Z,68.59
2023-05-07T18:01:45.861Z,68.52
2023-05-07T18:04:13.978Z,68.45
2023-05-07T18:06:42.248Z,68.52
2023-05-07T18:09:10.222Z,68.55
2023-05-07T18:11:38.279Z,68.65
2023-05-07T18:14:06.667Z,68.57
2023-05-07T18:16:36.685Z,68.62
2023-05-07T18:19:04.770Z,68.68
2023-05-07T18:21:32.877Z,68.82
2023-05-07T18:24:00.773Z,68.69
2023-05-07T18:26:28.720Z,68.77
2023-05-07T18:28:56.645Z,68.91
2023-05-07T18:31:24.576Z,68.94
2023-05-07T18:33:53.000Z,68.99
2023-05-07T18:36:20.916Z,69.03
2023-05-07T18:38:48.849Z,69.12
2023-05-07T18:41:16.790Z,69.10
2023-05-07T18:43:44.641Z,69.11
2023-05-07T18:46:12.574Z,69.12
2023-05-07T18:48:40.662Z,69.16
2023-05-07T18:51:12.656Z,69.25
2023-05-07T18:53:40.831Z,69.38
2023-05-07T18:56:08.894Z,69.36
2023-05-07T18:58:36.908Z,69.21
2023-05-07T19:01:08.500Z,69.32
2023-05-07T19:03:36.953Z,69.43
2023-05-07T19:06:06.144Z,69.10
2023-05-07T19:08:34.183Z,69.16
2023-05-07T19:11:03.267Z,69.26
2023-05-07T19:13:31.373Z,69.37
2023-05-07T19:15:59.832Z,69.31
2023-05-07T19:18:29.730Z,69.37
2023-05-07T19:20:57.695Z,69.48
2023-05-07T19:23:26.073Z,69.58
2023-05-07T19:25:54.128Z,69.48
2023-05-07T19:28:22.086Z,69.36
2023-05-07T19:30:52.235Z,69.35
2023-05-07T19:33:20.317Z,69.34
2023-05-07T19:35:48.220Z,69.19
2023-05-07T19:38:16.222Z,69.13
2023-05-07T19:40:44.158Z,69.20
2023-05-07T19:43:12.059Z,69.18
2023-05-07T19:45:42.933Z,68.91
2023-05-07T19:48:14.786Z,68.59
2023-05-07T19:50:48.143Z,68.17
2023-05-07T19:53:16.079Z,67.51
2023-05-07T19:55:43.973Z,67.33
2023-05-07T19:58:12.152Z,67.51
2023-05-07T20:00:41.540Z,67.51
2023-05-07T20:03:18.204Z,67.39
2023-05-07T20:05:47.627Z,67.25
2023-05-07T20:08:15.513Z,66.97
2023-05-07T20:10:43.380Z,66.82
2023-05-07T20:13:12.103Z,66.53
2023-05-07T20:15:40.305Z,66.64
2023-05-07T20:18:08.569Z,66.57
2023-05-07T20:20:36.587Z,66.51
2023-05-07T20:23:04.436Z,66.66
2023-05-07T20:25:32.433Z,66.68
2023-05-07T20:28:00.631Z,66.60
2023-05-07T20:30:28.599Z,66.67
2023-05-07T20:32:57.649Z,66.75
2023-05-07T20:35:25.722Z,66.76
2023-05-07T20:37:53.625Z,66.66
2023-05-07T20:40:21.545Z,66.77
2023-05-07T20:42:49.594Z,66.70
2023-05-07T20:45:17.618Z,66.81
2023-05-07T20:47:45.543Z,66.70
2023-05-07T20:50:13.847Z,66.71
2023-05-07T20:52:42.590Z,66.71
2023-05-07T20:55:10.551Z,66.70
2023-05-07T20:57:38.471Z,66.60
2023-05-07T21:00:08.186Z,66.69
2023-05-07T21:02:37.079Z,66.71
2023-05-07T21:05:05.472Z,66.64
2023-05-07T21:07:33.439Z,66.45
2023-05-07T21:10:01.422Z,66.57
2023-05-07T21:12:29.263Z,66.59
2023-05-07T21:14:57.563Z,66.54
2023-05-07T21:17:25.515Z,66.55
2023-05-07T21:19:53.457Z,66.73
2023-05-07T21:22:21.473Z,66.76
2023-05-07T21:24:49.413Z,66.72
2023-05-07T21:27:17.494Z,66.82
2023-05-07T21:29:46.080Z,66.95
2023-05-07T21:32:14.068Z,66.81
2023-05-07T21:34:41.989Z,66.91
2023-05-07T21:37:09.861Z,67.00
2023-05-07T21:39:37.875Z,67.02
2023-05-07T21:42:05.843Z,67.13
2023-05-07T21:44:33.748Z,66.99
2023-05-07T21:47:01.673Z,67.02
2023-05-07T21:49:29.669Z,67.15
2023-05-07T21:51:57.659Z,67.19
2023-05-07T21:54:25.698Z,67.18
2023-05-07T21:56:53.633Z,67.23
2023-05-07T21:59:21.585Z,67.23
2023-05-07T22:01:49.623Z,67.23
2023-05-07T22:04:17.516Z,67.27
2023-05-07T22:06:45.432Z,67.21
2023-05-07T22:09:13.986Z,67.21
2023-05-07T22:11:41.906Z,67.23
2023-05-07T22:14:09.888Z,67.21
2023-05-07T22:16:37.862Z,67.36
2023-05-07T22:19:06.431Z,67.48
2023-05-07T22:21:34.374Z,67.54
2023-05-07T22:24:02.426Z,67.72
2023-05-07T22:26:30.348Z,67.73
2023-05-07T22:28:58.233Z,67.60
2023-05-07T22:31:26.401Z,67.54
2023-05-07T22:33:54.317Z,67.50
2023-05-07T22:36:22.256Z,67.41
2023-05-07T22:38:50.284Z,67.44
2023-05-07T22:41:18.279Z,67.47
2023-05-07T22:43:46.206Z,67.54
2023-05-07T22:46:14.164Z,67.51
2023-05-07T22:48:42.353Z,67.59
2023-05-07T22:51:14.661Z,67.65
2023-05-07T22:53:42.651Z,67.67
2023-05-07T22:56:10.630Z,67.86
2023-05-07T22:58:38.525Z,67.89
2023-05-07T23:01:17.507Z,67.97
2023-05-07T23:03:45.665Z,67.98
2023-05-07T23:06:13.649Z,68.11
2023-05-07T23:08:41.536Z,68.22
2023-05-07T23:11:09.508Z,68.34
2023-05-07T23:13:37.596Z,68.44
2023-05-07T23:16:05.775Z,68.47
2023-05-07T23:18:33.702Z,68.55
2023-05-07T23:21:01.775Z,68.62
2023-05-07T23:23:33.715Z,68.78
2023-05-07T23:26:01.635Z,68.95
2023-05-07T23:28:29.569Z,69.11
2023-05-07T23:30:57.572Z,69.24
2023-05-07T23:33:25.539Z,69.29
2023-05-07T23:36:04.013Z,69.30
2023-05-07T23:38:32.475Z,69.38
2023-05-07T23:41:00.667Z,69.48
2023-05-07T23:43:28.743Z,69.65
2023-05-07T23:45:56.617Z,69.72
2023-05-07T23:48:24.533Z,69.72
2023-05-07T23:50:52.537Z,69.78
2023-05-07T23:53:20.423Z,69.78
2023-05-07T23:55:48.389Z,69.87
2023-05-07T23:58:16.317Z,69.93
